createdAt,value
2018-07-20T00:02:04.373Z,94.80
2018-07-20T00:04:32.869Z,94.80
2018-07-20T00:07:01.421Z,95.10
2018-07-20T00:09:30.949Z,95.00
2018-07-20T00:11:59.440Z,95.10
2018-07-20T00:14:27.929Z,95.20
2018-07-20T00:16:56.405Z,95.20
2018-07-20T00:19:24.881Z,95.30
2018-07-20T00:21:55.097Z,95.30
2018-07-20T00:24:23.550Z,95.40
2018-07-20T00:26:51.997Z,95.50
2018-07-20T00:29:20.523Z,95.60
2018-07-20T00:31:49.642Z,95.70
2018-07-20T00:34:18.810Z,95.80
2018-07-20T00:36:47.296Z,95.90
2018-07-20T00:39:15.789Z,96.00
2018-07-20T00:41:44.313Z,96.10
2018-07-20T00:44:12.748Z,96.10
2018-07-20T00:46:41.209Z,96.20
2018-07-20T00:49:09.691Z,96.30
2018-07-20T00:51:38.224Z,96.40
2018-07-20T00:54:06.710Z,96.30
2018-07-20T00:56:35.131Z,96.40
2018-07-20T00:59:03.624Z,96.50
2018-07-20T01:01:32.130Z,96.70
2018-07-20T01:04:00.676Z,96.80
2018-07-20T01:06:29.785Z,97.00
2018-07-20T01:08:58.246Z,97.00
2018-07-20T01:11:26.836Z,97.10
2018-07-20T01:13:55.405Z,97.20
2018-07-20T01:16:23.867Z,97.20
2018-07-20T01:18:52.348Z,97.30
2018-07-20T01:21:20.840Z,97.50
2018-07-20T01:23:49.335Z,97.60
2018-07-20T01:26:17.775Z,97.70
2018-07-20T01:28:46.291Z,97.80
2018-07-20T01:31:14.752Z,97.90
2018-07-20T01:33:43.322Z,98.00
2018-07-20T01:36:11.825Z,98.00
2018-07-20T01:38:40.964Z,98.10
2018-07-20T01:43:37.637Z,98.20
2018-07-20T01:46:06.121Z,98.20
2018-07-20T01:48:34.613Z,98.30
2018-07-20T01:51:03.077Z,98.50
2018-07-20T01:53:31.613Z,98.60
2018-07-20T01:56:00.065Z,98.70
2018-07-20T01:58:29.112Z,98.70
2018-07-20T02:00:57.575Z,98.90
2018-07-20T02:03:26.075Z,99.00
2018-07-20T02:05:54.530Z,99.10
2018-07-20T02:08:23.006Z,99.30
2018-07-20T02:10:59.707Z,99.40
2018-07-20T02:13:28.244Z,99.50
2018-07-20T02:15:57.502Z,99.50
2018-07-20T02:18:25.996Z,99.60
2018-07-20T02:20:54.526Z,99.90
2018-07-20T02:23:23.632Z,99.90
2018-07-20T02:25:52.188Z,99.90
2018-07-20T02:28:20.745Z,99.90
2018-07-20T02:30:49.234Z,99.90
2018-07-20T02:33:17.721Z,99.90
2018-07-20T02:35:46.224Z,99.90
2018-07-20T02:38:14.797Z,99.90
2018-07-20T02:40:43.329Z,99.90
2018-07-20T02:43:11.946Z,99.90
2018-07-20T02:45:40.413Z,99.90
2018-07-20T02:48:08.922Z,99.90
2018-07-20T02:50:37.450Z,99.90
2018-07-20T02:53:05.941Z,99.90
2018-07-20T02:55:34.454Z,99.90
2018-07-20T02:58:02.897Z,99.90
2018-07-20T03:00:31.439Z,99.90
2018-07-20T03:02:59.924Z,99.90
2018-07-20T03:05:28.441Z,99.90
2018-07-20T03:07:56.866Z,99.90
2018-07-20T03:10:25.458Z,99.90
2018-07-20T03:12:53.925Z,99.90
2018-07-20T03:15:22.966Z,99.90
2018-07-20T03:17:51.436Z,99.90
2018-07-20T03:20:19.891Z,99.90
2018-07-20T03:22:48.357Z,99.90
2018-07-20T03:25:16.865Z,99.90
2018-07-20T03:27:45.368Z,99.90
2018-07-20T03:30:13.859Z,99.90
2018-07-20T03:32:42.488Z,99.90
2018-07-20T03:35:10.933Z,99.90
2018-07-20T03:37:39.465Z,99.90
2018-07-20T03:40:07.993Z,99.90
2018-07-20T03:42:36.465Z,99.90
2018-07-20T03:45:06.044Z,99.90
2018-07-20T03:47:34.497Z,99.90
2018-07-20T03:50:03.051Z,99.90
2018-07-20T03:52:31.656Z,99.90
2018-07-20T03:55:00.244Z,99.90
2018-07-20T03:57:33.194Z,99.90
2018-07-20T04:00:01.686Z,99.90
2018-07-20T04:02:30.249Z,99.90
2018-07-20T04:04:58.761Z,99.90
2018-07-20T04:07:27.823Z,99.90
2018-07-20T04:09:56.254Z,99.90
2018-07-20T04:12:24.838Z,99.90
2018-07-20T04:14:53.400Z,99.90
2018-07-20T04:17:21.977Z,99.90
2018-07-20T04:19:50.581Z,99.90
2018-07-20T04:22:19.176Z,99.90
2018-07-20T04:24:47.738Z,99.90
2018-07-20T04:27:16.251Z,99.90
2018-07-20T04:29:44.834Z,99.90
2018-07-20T04:32:13.367Z,99.90
2018-07-20T04:34:41.865Z,99.90
2018-07-20T04:37:10.410Z,99.90
2018-07-20T04:39:39.045Z,99.90
2018-07-20T04:42:07.609Z,99.90
2018-07-20T04:44:36.168Z,99.90
2018-07-20T04:47:05.500Z,99.90
2018-07-20T04:52:02.913Z,99.90
2018-07-20T04:54:31.508Z,99.90
2018-07-20T04:57:00.011Z,99.90
2018-07-20T04:59:28.646Z,99.90
2018-07-20T05:01:57.129Z,99.90
2018-07-20T05:04:25.622Z,99.90
2018-07-20T05:06:54.093Z,99.90
2018-07-20T05:09:22.617Z,99.90
2018-07-20T05:11:51.128Z,99.90
2018-07-20T05:14:19.656Z,99.90
2018-07-20T05:16:48.287Z,99.90
2018-07-20T05:19:16.792Z,99.90
2018-07-20T05:21:45.568Z,99.90
2018-07-20T05:24:14.046Z,99.90
2018-07-20T05:26:42.508Z,99.90
2018-07-20T05:29:11.661Z,99.90
2018-07-20T05:31:40.146Z,99.90
2018-07-20T05:34:08.635Z,99.90
2018-07-20T05:36:37.209Z,99.90
2018-07-20T05:39:07.742Z,99.90
2018-07-20T05:41:36.312Z,99.90
2018-07-20T05:44:04.934Z,99.90
2018-07-20T05:46:33.525Z,99.90
2018-07-20T05:49:01.997Z,99.90
2018-07-20T05:51:30.531Z,99.90
2018-07-20T05:53:59.110Z,99.90
2018-07-20T05:56:27.626Z,99.90
2018-07-20T05:58:56.118Z,99.90
2018-07-20T06:01:24.588Z,99.90
2018-07-20T06:03:53.135Z,99.90
2018-07-20T06:06:21.636Z,99.90
2018-07-20T06:08:50.233Z,99.90
2018-07-20T06:11:18.725Z,99.90
2018-07-20T06:13:47.403Z,99.90
2018-07-20T06:16:15.903Z,99.90
2018-07-20T06:18:45.168Z,99.90
2018-07-20T06:21:13.722Z,99.90
2018-07-20T06:23:43.120Z,99.90
2018-07-20T06:26:11.571Z,99.90
2018-07-20T06:28:40.098Z,99.90
2018-07-20T06:31:08.553Z,99.90
2018-07-20T06:33:37.036Z,99.90
2018-07-20T06:36:05.490Z,99.90
2018-07-20T06:38:33.974Z,99.90
2018-07-20T06:41:02.426Z,99.90
2018-07-20T06:43:30.881Z,99.90
2018-07-20T06:45:59.442Z,99.90
2018-07-20T06:48:29.269Z,99.90
2018-07-20T06:50:58.485Z,99.60
2018-07-20T06:53:27.105Z,98.90
2018-07-20T06:55:55.678Z,98.50
2018-07-20T06:58:24.146Z,96.80
2018-07-20T07:00:53.353Z,97.10
2018-07-20T07:03:21.844Z,97.10
2018-07-20T07:05:50.294Z,94.50
2018-07-20T07:08:18.924Z,95.30
2018-07-20T07:10:47.399Z,94.40
2018-07-20T07:13:15.843Z,94.40
2018-07-20T07:15:44.427Z,93.90
2018-07-20T07:18:12.899Z,92.50
2018-07-20T07:20:41.523Z,92.70
2018-07-20T07:23:10.310Z,91.90
2018-07-20T07:25:38.838Z,91.70
2018-07-20T07:28:07.354Z,90.60
2018-07-20T07:30:35.932Z,87.70
2018-07-20T07:33:04.463Z,88.70
2018-07-20T07:35:32.977Z,87.00
2018-07-20T07:38:01.425Z,86.10
2018-07-20T07:40:29.931Z,84.50
2018-07-20T07:42:58.407Z,83.00
2018-07-20T07:45:27.035Z,81.60
2018-07-20T07:47:55.503Z,81.40
2018-07-20T07:50:23.992Z,81.40
2018-07-20T07:52:52.487Z,81.00
2018-07-20T07:55:21.290Z,79.50
2018-07-20T07:57:50.403Z,78.70
2018-07-20T08:00:18.942Z,77.40
2018-07-20T08:02:47.415Z,77.70
2018-07-20T08:05:15.988Z,77.00
2018-07-20T08:07:44.513Z,75.40
2018-07-20T08:10:13.942Z,75.10
2018-07-20T08:12:43.314Z,72.90
2018-07-20T08:15:11.893Z,70.70
2018-07-20T08:17:40.380Z,68.90
2018-07-20T08:20:09.058Z,66.40
2018-07-20T08:22:37.619Z,64.40
2018-07-20T08:25:06.138Z,64.60
2018-07-20T08:27:34.690Z,63.60
2018-07-20T08:30:03.181Z,63.80
2018-07-20T08:32:32.907Z,65.10
2018-07-20T08:35:01.390Z,61.10
2018-07-20T08:37:30.318Z,59.90
2018-07-20T08:39:58.904Z,56.80
2018-07-20T08:42:27.450Z,58.50
2018-07-20T08:44:56.831Z,58.40
2018-07-20T08:47:25.444Z,56.50
2018-07-20T08:49:54.110Z,56.40
2018-07-20T08:52:27.105Z,54.80
2018-07-20T08:54:55.646Z,54.50
2018-07-20T08:57:24.147Z,53.70
2018-07-20T08:59:52.635Z,52.30
2018-07-20T09:02:21.261Z,54.10
2018-07-20T09:04:49.774Z,51.80
2018-07-20T09:07:18.294Z,50.20
2018-07-20T09:09:46.943Z,52.60
2018-07-20T09:12:15.573Z,52.40
2018-07-20T09:14:44.146Z,51.00
2018-07-20T09:17:12.979Z,50.10
2018-07-20T09:19:41.490Z,49.10
2018-07-20T09:22:10.070Z,48.60
2018-07-20T09:24:38.737Z,47.40
2018-07-20T09:27:07.248Z,49.10
2018-07-20T09:32:04.534Z,46.90
2018-07-20T09:34:33.151Z,45.50
2018-07-20T09:37:01.957Z,44.00
2018-07-20T09:39:30.925Z,41.90
2018-07-20T09:42:00.481Z,43.20
2018-07-20T09:44:30.561Z,44.10
2018-07-20T09:46:59.613Z,44.50
2018-07-20T09:49:28.498Z,43.10
2018-07-20T09:51:57.278Z,43.40
2018-07-20T09:54:26.149Z,42.20
2018-07-20T09:56:55.105Z,40.40
2018-07-20T09:59:24.292Z,39.50
2018-07-20T10:01:52.938Z,37.70
2018-07-20T10:04:21.882Z,37.70
2018-07-20T10:06:50.548Z,38.30
2018-07-20T10:09:19.277Z,38.50
2018-07-20T10:11:48.366Z,37.40
2018-07-20T10:14:17.087Z,37.00
2018-07-20T10:16:46.079Z,35.10
2018-07-20T10:19:14.827Z,35.40
2018-07-20T10:21:43.832Z,35.90
2018-07-20T10:24:12.627Z,34.10
2018-07-20T10:26:41.445Z,34.00
2018-07-20T10:29:11.244Z,34.70
2018-07-20T10:31:40.459Z,34.70
2018-07-20T10:34:09.516Z,34.10
2018-07-20T10:36:38.613Z,33.70
2018-07-20T10:39:09.774Z,32.80
2018-07-20T10:41:38.492Z,33.10
2018-07-20T10:44:07.100Z,32.40
2018-07-20T10:46:35.693Z,31.40
2018-07-20T10:49:04.511Z,32.90
2018-07-20T10:51:33.325Z,31.90
2018-07-20T10:54:01.897Z,31.70
2018-07-20T10:56:30.745Z,30.30
2018-07-20T10:58:59.511Z,31.00
2018-07-20T11:01:28.410Z,31.60
2018-07-20T11:03:57.064Z,30.50
2018-07-20T11:06:25.805Z,30.00
2018-07-20T11:08:54.430Z,29.30
2018-07-20T11:11:23.364Z,30.10
2018-07-20T11:13:52.161Z,31.10
2018-07-20T11:16:20.825Z,30.00
2018-07-20T11:18:49.659Z,30.30
2018-07-20T11:21:18.617Z,29.90
2018-07-20T11:23:47.484Z,29.20
2018-07-20T11:26:16.203Z,29.50
2018-07-20T11:28:45.022Z,29.90
2018-07-20T11:31:13.890Z,31.70
2018-07-20T11:33:42.724Z,30.40
2018-07-20T11:36:11.426Z,31.30
2018-07-20T11:38:40.319Z,30.30
2018-07-20T11:41:09.407Z,30.30
2018-07-20T11:43:38.232Z,30.50
2018-07-20T11:46:06.880Z,30.70
2018-07-20T11:48:36.143Z,31.70
2018-07-20T11:51:05.477Z,31.70
2018-07-20T11:53:34.460Z,31.90
2018-07-20T11:56:03.323Z,31.40
2018-07-20T11:58:31.864Z,30.60
2018-07-20T12:01:00.476Z,30.10
2018-07-20T12:03:29.041Z,30.20
2018-07-20T12:05:57.586Z,29.90
2018-07-20T12:08:26.154Z,29.50
2018-07-20T12:10:54.686Z,30.00
2018-07-20T12:13:23.312Z,30.10
2018-07-20T12:15:51.837Z,30.00
2018-07-20T12:18:20.385Z,29.40
2018-07-20T12:20:48.957Z,29.50
2018-07-20T12:23:17.517Z,30.00
2018-07-20T12:25:46.064Z,29.60
2018-07-20T12:28:14.700Z,29.60
2018-07-20T12:30:43.282Z,29.30
2018-07-20T12:33:11.830Z,28.80
2018-07-20T12:35:40.398Z,29.20
2018-07-20T12:38:09.063Z,29.60
2018-07-20T12:40:38.083Z,28.70
2018-07-20T12:43:06.732Z,29.10
2018-07-20T12:45:35.352Z,29.40
2018-07-20T12:48:03.849Z,29.60
2018-07-20T12:50:33.089Z,29.40
2018-07-20T12:53:01.957Z,29.50
2018-07-20T12:55:30.446Z,29.10
2018-07-20T12:57:58.957Z,28.50
2018-07-20T13:00:27.477Z,28.50
2018-07-20T13:02:56.035Z,28.10
2018-07-20T13:05:24.747Z,27.90
2018-07-20T13:07:59.965Z,28.30
2018-07-20T13:10:28.532Z,29.10
2018-07-20T13:12:57.152Z,29.10
2018-07-20T13:15:25.750Z,28.80
2018-07-20T13:17:54.485Z,29.10
2018-07-20T13:20:22.979Z,28.40
2018-07-20T13:22:51.482Z,28.50
2018-07-20T13:25:19.978Z,29.10
2018-07-20T13:27:48.574Z,28.60
2018-07-20T13:30:17.098Z,28.60
2018-07-20T13:32:45.685Z,29.10
2018-07-20T13:35:14.245Z,29.30
2018-07-20T13:37:42.778Z,28.40
2018-07-20T13:40:11.592Z,29.00
2018-07-20T13:42:40.226Z,29.00
2018-07-20T13:45:08.921Z,30.00
2018-07-20T13:47:37.468Z,29.70
2018-07-20T13:50:06.407Z,30.20
2018-07-20T13:52:35.062Z,30.60
2018-07-20T13:55:03.684Z,30.60
2018-07-20T13:57:32.218Z,31.70
2018-07-20T14:00:00.827Z,32.60
2018-07-20T14:02:29.376Z,33.30
2018-07-20T14:04:57.949Z,33.70
2018-07-20T14:07:26.505Z,34.00
2018-07-20T14:12:29.757Z,32.90
2018-07-20T14:14:58.357Z,32.80
2018-07-20T14:17:26.984Z,32.80
2018-07-20T14:19:55.516Z,31.00
2018-07-20T14:22:24.071Z,31.80
2018-07-20T14:24:53.503Z,30.20
2018-07-20T14:27:22.051Z,31.50
2018-07-20T14:29:50.575Z,29.80
2018-07-20T14:32:19.150Z,30.30
2018-07-20T14:34:47.698Z,29.90
2018-07-20T14:39:44.479Z,30.00
2018-07-20T14:42:12.977Z,30.50
2018-07-20T14:44:41.459Z,31.30
2018-07-20T14:47:10.197Z,30.80
2018-07-20T14:49:38.844Z,31.00
2018-07-20T14:52:07.433Z,30.70
2018-07-20T14:54:35.992Z,30.20
2018-07-20T14:57:04.477Z,30.40
2018-07-20T14:59:33.027Z,30.30
2018-07-20T15:02:01.582Z,30.30
2018-07-20T15:04:30.427Z,30.60
2018-07-20T15:06:59.808Z,31.10
2018-07-20T15:09:28.315Z,31.80
2018-07-20T15:12:01.396Z,31.20
2018-07-20T15:14:30.293Z,31.00
2018-07-20T15:16:59.352Z,31.80
2018-07-20T15:19:28.351Z,31.50
2018-07-20T15:21:57.642Z,32.70
2018-07-20T15:24:26.192Z,31.80
2018-07-20T15:29:23.473Z,32.20
2018-07-20T15:31:51.998Z,31.90
2018-07-20T15:34:20.580Z,30.80
2018-07-20T15:36:49.060Z,31.20
2018-07-20T15:39:17.569Z,31.50
2018-07-20T15:44:14.289Z,32.60
2018-07-20T15:46:42.884Z,32.80
2018-07-20T15:49:11.238Z,33.10
2018-07-20T15:53:35.205Z,33.60
2018-07-20T15:54:08.194Z,33.40
2018-07-20T15:56:36.689Z,34.00
2018-07-20T15:59:05.283Z,33.70
2018-07-20T16:01:33.783Z,34.30
2018-07-20T16:04:02.367Z,34.50
2018-07-20T16:06:31.580Z,34.50
2018-07-20T16:09:00.046Z,35.00
2018-07-20T16:11:28.520Z,35.40
2018-07-20T16:13:57.038Z,36.10
2018-07-20T16:16:25.530Z,36.10
2018-07-20T16:18:54.957Z,36.40
2018-07-20T16:21:23.493Z,36.20
2018-07-20T16:23:51.970Z,36.80
2018-07-20T16:26:20.619Z,37.10
2018-07-20T16:28:49.174Z,37.00
2018-07-20T16:31:17.627Z,37.40
2018-07-20T16:33:46.173Z,37.60
2018-07-20T16:36:15.401Z,37.90
2018-07-20T16:38:44.054Z,38.20
2018-07-20T16:41:12.640Z,38.40
2018-07-20T16:43:41.229Z,38.60
2018-07-20T16:46:09.755Z,39.20
2018-07-20T16:48:38.304Z,39.40
2018-07-20T16:51:06.877Z,39.70
2018-07-20T16:53:35.460Z,40.20
2018-07-20T16:58:32.306Z,41.40
2018-07-20T17:01:00.931Z,41.60
2018-07-20T17:03:34.158Z,41.80
2018-07-20T17:06:04.502Z,42.00
2018-07-20T17:08:33.205Z,42.20
2018-07-20T17:11:01.971Z,42.90
2018-07-20T17:13:30.462Z,43.60
2018-07-20T17:15:59.050Z,43.10
2018-07-20T17:18:27.561Z,43.00
2018-07-20T17:20:56.105Z,43.50
2018-07-20T17:23:25.582Z,43.90
2018-07-20T17:25:54.339Z,44.00
2018-07-20T17:28:22.909Z,44.70
2018-07-20T17:30:51.431Z,44.90
2018-07-20T17:33:20.017Z,44.70
2018-07-20T17:35:48.534Z,45.70
2018-07-20T17:38:17.272Z,45.40
2018-07-20T17:40:45.961Z,45.90
2018-07-20T17:43:15.015Z,45.60
2018-07-20T17:45:43.814Z,45.70
2018-07-20T17:48:12.550Z,45.90
2018-07-20T17:50:41.169Z,45.80
2018-07-20T17:53:09.857Z,46.30
2018-07-20T17:55:38.852Z,46.50
2018-07-20T17:58:07.524Z,46.90
2018-07-20T18:00:36.070Z,47.20
2018-07-20T18:05:33.093Z,48.30
2018-07-20T18:08:02.329Z,48.60
2018-07-20T18:10:31.651Z,48.70
2018-07-20T18:13:00.164Z,48.80
2018-07-20T18:15:28.733Z,49.40
2018-07-20T18:17:57.389Z,49.80
2018-07-20T18:20:25.971Z,50.10
2018-07-20T18:22:54.757Z,50.00
2018-07-20T18:25:23.509Z,50.90
2018-07-20T18:30:20.280Z,51.60
2018-07-20T18:32:48.912Z,51.90
2018-07-20T18:35:17.484Z,52.30
2018-07-20T18:37:46.049Z,53.10
2018-07-20T18:40:14.657Z,53.00
2018-07-20T18:42:43.251Z,53.00
2018-07-20T18:45:11.844Z,53.60
2018-07-20T18:47:41.478Z,53.90
2018-07-20T18:50:10.511Z,54.30
2018-07-20T18:52:39.669Z,54.70
2018-07-20T18:55:08.220Z,55.00
2018-07-20T18:57:36.752Z,55.80
2018-07-20T19:00:05.474Z,56.30
2018-07-20T19:02:34.024Z,56.80
2018-07-20T19:05:02.610Z,57.50
2018-07-20T19:07:31.235Z,58.30
2018-07-20T19:10:00.084Z,59.10
2018-07-20T19:12:28.673Z,60.00
2018-07-20T19:14:57.335Z,60.60
2018-07-20T19:17:25.923Z,61.20
2018-07-20T19:19:54.535Z,61.80
2018-07-20T19:22:23.074Z,62.10
2018-07-20T19:24:51.634Z,63.00
2018-07-20T19:27:20.241Z,63.60
2018-07-20T19:29:48.841Z,63.50
2018-07-20T19:32:17.384Z,64.10
2018-07-20T19:34:46.163Z,64.70
2018-07-20T19:37:14.708Z,64.80
2018-07-20T19:39:43.329Z,65.30
2018-07-20T19:42:11.934Z,65.80
2018-07-20T19:44:40.551Z,65.80
2018-07-20T19:47:09.229Z,65.70
2018-07-20T19:49:37.919Z,66.10
2018-07-20T19:52:07.363Z,66.30
2018-07-20T19:54:36.694Z,66.40
2018-07-20T19:57:05.328Z,66.60
2018-07-20T19:59:33.888Z,66.10
2018-07-20T20:02:02.468Z,66.50
2018-07-20T20:05:51.035Z,65.50
2018-07-20T20:08:19.557Z,66.80
2018-07-20T20:10:48.490Z,67.30
2018-07-20T20:13:17.059Z,67.20
2018-07-20T20:15:45.658Z,67.50
2018-07-20T20:18:14.195Z,67.90
2018-07-20T20:20:42.696Z,68.30
2018-07-20T20:23:11.249Z,68.70
2018-07-20T20:25:39.835Z,68.90
2018-07-20T20:28:08.361Z,68.90
2018-07-20T20:30:36.931Z,69.30
2018-07-20T20:33:06.015Z,69.70
2018-07-20T20:35:34.598Z,70.00
2018-07-20T20:38:03.162Z,70.20
2018-07-20T20:40:31.712Z,70.40
2018-07-20T20:43:00.257Z,70.80
2018-07-20T20:45:28.746Z,71.00
2018-07-20T20:47:57.384Z,72.20
2018-07-20T20:50:25.914Z,72.10
2018-07-20T20:52:54.435Z,72.00
2018-07-20T20:55:23.038Z,72.50
2018-07-20T20:57:51.559Z,72.80
2018-07-20T21:00:23.129Z,73.10
2018-07-20T21:02:51.670Z,73.60
2018-07-20T21:05:20.228Z,74.00
2018-07-20T21:07:48.769Z,74.50
2018-07-20T21:10:17.368Z,74.70
2018-07-20T21:12:45.944Z,75.10
2018-07-20T21:15:14.497Z,75.30
2018-07-20T21:17:43.157Z,75.60
2018-07-20T21:22:39.915Z,75.90
2018-07-20T21:25:15.200Z,76.20
2018-07-20T21:27:43.863Z,76.70
2018-07-20T21:30:12.370Z,76.90
2018-07-20T21:32:40.897Z,77.30
2018-07-20T21:35:09.528Z,77.30
2018-07-20T21:37:38.107Z,77.60
2018-07-20T21:40:06.712Z,77.80
2018-07-20T21:42:35.311Z,78.20
2018-07-20T21:45:03.899Z,78.40
2018-07-20T21:47:32.450Z,79.00
2018-07-20T21:50:00.994Z,79.00
2018-07-20T21:52:29.517Z,79.10
2018-07-20T21:54:58.173Z,79.50
2018-07-20T21:57:26.693Z,79.70
2018-07-20T21:59:55.324Z,79.90
2018-07-20T22:02:23.880Z,80.20
2018-07-20T22:04:53.186Z,80.40
2018-07-20T22:07:22.108Z,80.40
2018-07-20T22:10:47.090Z,79.30
2018-07-20T22:13:15.604Z,81.10
2018-07-20T22:15:44.021Z,81.40
2018-07-20T22:18:12.487Z,81.70
2018-07-20T22:20:41.020Z,82.00
2018-07-20T22:23:09.510Z,82.30
2018-07-20T22:25:37.945Z,82.30
2018-07-20T22:28:06.414Z,82.50
2018-07-20T22:30:34.987Z,82.90
2018-07-20T22:33:03.530Z,83.00
2018-07-20T22:35:32.014Z,83.30
2018-07-20T22:38:00.493Z,83.50
2018-07-20T22:40:28.994Z,83.80
2018-07-20T22:42:57.495Z,84.00
2018-07-20T22:45:26.010Z,83.90
2018-07-20T22:47:54.481Z,84.20
2018-07-20T22:50:22.925Z,84.30
2018-07-20T22:52:51.437Z,84.30
2018-07-20T22:55:19.891Z,84.10
2018-07-20T22:57:48.404Z,83.90
2018-07-20T23:00:16.864Z,83.90
2018-07-20T23:05:13.535Z,84.10
2018-07-20T23:07:41.987Z,83.70
2018-07-20T23:10:10.475Z,83.30
2018-07-20T23:12:39.048Z,83.30
2018-07-20T23:15:07.555Z,83.00
2018-07-20T23:17:36.022Z,82.50
2018-07-20T23:20:04.701Z,82.30
2018-07-20T23:22:33.181Z,82.00
2018-07-20T23:25:01.608Z,82.00
2018-07-20T23:27:30.053Z,82.00
2018-07-20T23:32:26.666Z,81.70
2018-07-20T23:34:55.905Z,81.60
2018-07-20T23:37:24.373Z,81.40
2018-07-20T23:42:21.016Z,81.30
2018-07-20T23:44:49.488Z,81.40
2018-07-20T23:47:17.961Z,81.30
2018-07-20T23:49:46.481Z,81.40
2018-07-20T23:52:15.045Z,81.90
2018-07-20T23:54:43.651Z,81.90
2018-07-20T23:57:12.234Z,82.50
2018-07-20T23:59:40.716Z,82.60
